sensor_id;sensor_type;location;lat;lon;timestamp;P1;durP1;ratioP1;P2;durP2;ratioP2
44989;SDS011;30723;51.206;3.326;2022-07-24T00:01:35;20.98;;;11.70;;
44989;SDS011;30723;51.206;3.326;2022-07-24T00:04:02;18.20;;;10.43;;
44989;SDS011;30723;51.206;3.326;2022-07-24T00:06:29;13.98;;;10.95;;
44989;SDS011;30723;51.206;3.326;2022-07-24T00:08:55;17.50;;;11.65;;
44989;SDS011;30723;51.206;3.326;2022-07-24T00:11:20;17.92;;;11.68;;
44989;SDS011;30723;51.206;3.326;2022-07-24T00:13:47;21.65;;;12.10;;
44989;SDS011;30723;51.206;3.326;2022-07-24T00:16:13;20.50;;;11.07;;
44989;SDS011;30723;51.206;3.326;2022-07-24T00:18:40;18.52;;;12.30;;
44989;SDS011;30723;51.206;3.326;2022-07-24T00:21:10;17.83;;;11.70;;
44989;SDS011;30723;51.206;3.326;2022-07-24T00:23:36;19.20;;;12.73;;
44989;SDS011;30723;51.206;3.326;2022-07-24T00:26:03;17.98;;;12.63;;
44989;SDS011;30723;51.206;3.326;2022-07-24T00:28:30;21.42;;;12.20;;
44989;SDS011;30723;51.206;3.326;2022-07-24T00:30:56;20.40;;;11.70;;
44989;SDS011;30723;51.206;3.326;2022-07-24T00:33:23;21.23;;;11.60;;
44989;SDS011;30723;51.206;3.326;2022-07-24T00:35:50;17.02;;;12.20;;
44989;SDS011;30723;51.206;3.326;2022-07-24T00:38:16;17.23;;;11.32;;
44989;SDS011;30723;51.206;3.326;2022-07-24T00:40:42;15.55;;;11.10;;
44989;SDS011;30723;51.206;3.326;2022-07-24T00:43:08;20.73;;;12.50;;
44989;SDS011;30723;51.206;3.326;2022-07-24T00:45:35;18.27;;;10.50;;
44989;SDS011;30723;51.206;3.326;2022-07-24T00:48:02;15.32;;;11.10;;
44989;SDS011;30723;51.206;3.326;2022-07-24T00:50:30;18.98;;;10.52;;
44989;SDS011;30723;51.206;3.326;2022-07-24T00:52:56;16.85;;;10.43;;
44989;SDS011;30723;51.206;3.326;2022-07-24T00:55:22;19.48;;;11.48;;
44989;SDS011;30723;51.206;3.326;2022-07-24T00:57:50;18.75;;;9.75;;
44989;SDS011;30723;51.206;3.326;2022-07-24T01:00:17;13.25;;;9.77;;
44989;SDS011;30723;51.206;3.326;2022-07-24T01:02:44;21.17;;;9.73;;
44989;SDS011;30723;51.206;3.326;2022-07-24T01:05:11;18.77;;;9.27;;
44989;SDS011;30723;51.206;3.326;2022-07-24T01:07:38;16.58;;;9.70;;
44989;SDS011;30723;51.206;3.326;2022-07-24T01:10:04;12.43;;;8.68;;
44989;SDS011;30723;51.206;3.326;2022-07-24T01:12:32;13.55;;;8.90;;
44989;SDS011;30723;51.206;3.326;2022-07-24T01:15:00;15.02;;;8.40;;
44989;SDS011;30723;51.206;3.326;2022-07-24T01:17:30;10.60;;;8.45;;
44989;SDS011;30723;51.206;3.326;2022-07-24T01:19:58;14.15;;;7.65;;
44989;SDS011;30723;51.206;3.326;2022-07-24T01:22:25;14.50;;;8.18;;
44989;SDS011;30723;51.206;3.326;2022-07-24T01:24:52;11.38;;;7.53;;
44989;SDS011;30723;51.206;3.326;2022-07-24T01:27:20;11.23;;;6.97;;
44989;SDS011;30723;51.206;3.326;2022-07-24T01:29:48;10.00;;;6.90;;
44989;SDS011;30723;51.206;3.326;2022-07-24T01:32:15;7.65;;;6.40;;
44989;SDS011;30723;51.206;3.326;2022-07-24T01:34:42;11.00;;;7.03;;
44989;SDS011;30723;51.206;3.326;2022-07-24T01:37:10;11.07;;;6.60;;
44989;SDS011;30723;51.206;3.326;2022-07-24T01:39:36;9.10;;;6.05;;
44989;SDS011;30723;51.206;3.326;2022-07-24T01:42:02;11.32;;;6.38;;
44989;SDS011;30723;51.206;3.326;2022-07-24T01:44:30;8.27;;;6.10;;
44989;SDS011;30723;51.206;3.326;2022-07-24T01:46:56;10.80;;;6.35;;
44989;SDS011;30723;51.206;3.326;2022-07-24T01:49:23;9.32;;;5.93;;
44989;SDS011;30723;51.206;3.326;2022-07-24T01:51:49;7.78;;;6.00;;
44989;SDS011;30723;51.206;3.326;2022-07-24T01:54:16;8.68;;;6.10;;
44989;SDS011;30723;51.206;3.326;2022-07-24T01:56:43;10.60;;;6.45;;
44989;SDS011;30723;51.206;3.326;2022-07-24T01:59:10;7.47;;;5.75;;
44989;SDS011;30723;51.206;3.326;2022-07-24T02:01:36;10.23;;;6.53;;
44989;SDS011;30723;51.206;3.326;2022-07-24T02:04:03;9.70;;;5.68;;
44989;SDS011;30723;51.206;3.326;2022-07-24T02:06:30;9.82;;;5.60;;
44989;SDS011;30723;51.206;3.326;2022-07-24T02:08:57;10.05;;;6.30;;
44989;SDS011;30723;51.206;3.326;2022-07-24T02:11:23;11.63;;;6.57;;
44989;SDS011;30723;51.206;3.326;2022-07-24T02:13:50;14.25;;;6.45;;
44989;SDS011;30723;51.206;3.326;2022-07-24T02:16:20;10.45;;;6.57;;
44989;SDS011;30723;51.206;3.326;2022-07-24T02:18:46;13.50;;;7.00;;
44989;SDS011;30723;51.206;3.326;2022-07-24T02:21:13;10.55;;;7.65;;
44989;SDS011;30723;51.206;3.326;2022-07-24T02:23:39;11.63;;;7.25;;
44989;SDS011;30723;51.206;3.326;2022-07-24T02:26:06;9.48;;;7.07;;
44989;SDS011;30723;51.206;3.326;2022-07-24T02:28:33;9.63;;;7.05;;
44989;SDS011;30723;51.206;3.326;2022-07-24T02:31:00;10.20;;;7.07;;
44989;SDS011;30723;51.206;3.326;2022-07-24T02:33:27;13.90;;;7.43;;
44989;SDS011;30723;51.206;3.326;2022-07-24T02:35:53;10.55;;;7.80;;
44989;SDS011;30723;51.206;3.326;2022-07-24T02:38:19;10.73;;;7.28;;
44989;SDS011;30723;51.206;3.326;2022-07-24T02:40:46;13.50;;;6.85;;
44989;SDS011;30723;51.206;3.326;2022-07-24T02:43:12;10.98;;;7.35;;
44989;SDS011;30723;51.206;3.326;2022-07-24T02:45:39;9.77;;;6.63;;
44989;SDS011;30723;51.206;3.326;2022-07-24T02:48:09;9.68;;;7.38;;
44989;SDS011;30723;51.206;3.326;2022-07-24T02:50:35;9.77;;;7.45;;
44989;SDS011;30723;51.206;3.326;2022-07-24T02:53:04;11.90;;;7.00;;
44989;SDS011;30723;51.206;3.326;2022-07-24T02:55:31;13.80;;;7.32;;
44989;SDS011;30723;51.206;3.326;2022-07-24T02:57:57;14.50;;;7.45;;
44989;SDS011;30723;51.206;3.326;2022-07-24T03:00:23;11.23;;;7.20;;
44989;SDS011;30723;51.206;3.326;2022-07-24T03:02:50;11.35;;;6.68;;
44989;SDS011;30723;51.206;3.326;2022-07-24T03:05:17;10.13;;;7.18;;
44989;SDS011;30723;51.206;3.326;2022-07-24T03:07:44;10.32;;;7.13;;
44989;SDS011;30723;51.206;3.326;2022-07-24T03:10:12;11.48;;;6.95;;
44989;SDS011;30723;51.206;3.326;2022-07-24T03:12:39;11.02;;;7.25;;
44989;SDS011;30723;51.206;3.326;2022-07-24T03:15:07;12.30;;;7.25;;
44989;SDS011;30723;51.206;3.326;2022-07-24T03:17:34;13.45;;;7.28;;
44989;SDS011;30723;51.206;3.326;2022-07-24T03:20:00;16.85;;;7.63;;
44989;SDS011;30723;51.206;3.326;2022-07-24T03:22:28;11.60;;;7.57;;
44989;SDS011;30723;51.206;3.326;2022-07-24T03:24:54;13.63;;;7.45;;
44989;SDS011;30723;51.206;3.326;2022-07-24T03:27:21;13.45;;;8.65;;
44989;SDS011;30723;51.206;3.326;2022-07-24T03:29:47;12.13;;;8.60;;
44989;SDS011;30723;51.206;3.326;2022-07-24T03:32:14;13.88;;;8.85;;
44989;SDS011;30723;51.206;3.326;2022-07-24T03:34:41;13.35;;;8.80;;
44989;SDS011;30723;51.206;3.326;2022-07-24T03:37:07;12.55;;;9.10;;
44989;SDS011;30723;51.206;3.326;2022-07-24T03:39:33;17.65;;;9.38;;
44989;SDS011;30723;51.206;3.326;2022-07-24T03:42:01;13.48;;;9.02;;
44989;SDS011;30723;51.206;3.326;2022-07-24T03:44:28;15.07;;;9.50;;
44989;SDS011;30723;51.206;3.326;2022-07-24T03:46:55;16.13;;;9.85;;
44989;SDS011;30723;51.206;3.326;2022-07-24T03:49:20;15.48;;;10.55;;
44989;SDS011;30723;51.206;3.326;2022-07-24T03:51:47;13.13;;;9.85;;
44989;SDS011;30723;51.206;3.326;2022-07-24T03:54:13;16.90;;;10.38;;
44989;SDS011;30723;51.206;3.326;2022-07-24T03:56:40;17.08;;;10.57;;
44989;SDS011;30723;51.206;3.326;2022-07-24T03:59:07;14.32;;;10.00;;
44989;SDS011;30723;51.206;3.326;2022-07-24T04:01:34;15.10;;;9.82;;
44989;SDS011;30723;51.206;3.326;2022-07-24T04:04:00;20.15;;;10.38;;
44989;SDS011;30723;51.206;3.326;2022-07-24T04:06:30;16.77;;;10.57;;
44989;SDS011;30723;51.206;3.326;2022-07-24T04:08:58;16.23;;;11.52;;
44989;SDS011;30723;51.206;3.326;2022-07-24T04:11:25;24.42;;;12.07;;
44989;SDS011;30723;51.206;3.326;2022-07-24T04:13:52;23.65;;;11.35;;
44989;SDS011;30723;51.206;3.326;2022-07-24T04:16:19;15.68;;;10.80;;
44989;SDS011;30723;51.206;3.326;2022-07-24T04:18:46;15.05;;;10.85;;
44989;SDS011;30723;51.206;3.326;2022-07-24T04:21:13;20.38;;;11.73;;
44989;SDS011;30723;51.206;3.326;2022-07-24T04:23:40;18.08;;;11.27;;
44989;SDS011;30723;51.206;3.326;2022-07-24T04:26:06;18.80;;;11.13;;
44989;SDS011;30723;51.206;3.326;2022-07-24T04:28:33;14.57;;;10.30;;
44989;SDS011;30723;51.206;3.326;2022-07-24T04:31:01;14.55;;;10.35;;
44989;SDS011;30723;51.206;3.326;2022-07-24T04:33:29;19.45;;;10.55;;
44989;SDS011;30723;51.206;3.326;2022-07-24T04:35:56;13.73;;;10.10;;
44989;SDS011;30723;51.206;3.326;2022-07-24T04:38:21;13.63;;;10.20;;
44989;SDS011;30723;51.206;3.326;2022-07-24T04:40:47;16.83;;;10.13;;
44989;SDS011;30723;51.206;3.326;2022-07-24T04:43:14;17.75;;;10.30;;
44989;SDS011;30723;51.206;3.326;2022-07-24T04:45:41;19.30;;;11.07;;
44989;SDS011;30723;51.206;3.326;2022-07-24T04:48:07;14.20;;;10.60;;
44989;SDS011;30723;51.206;3.326;2022-07-24T04:50:32;18.90;;;11.43;;
44989;SDS011;30723;51.206;3.326;2022-07-24T04:52:59;13.20;;;10.43;;
44989;SDS011;30723;51.206;3.326;2022-07-24T04:55:25;16.70;;;11.45;;
44989;SDS011;30723;51.206;3.326;2022-07-24T04:57:50;14.82;;;11.45;;
44989;SDS011;30723;51.206;3.326;2022-07-24T05:00:16;14.30;;;10.90;;
44989;SDS011;30723;51.206;3.326;2022-07-24T05:02:43;14.88;;;11.35;;
44989;SDS011;30723;51.206;3.326;2022-07-24T05:05:09;16.23;;;11.10;;
44989;SDS011;30723;51.206;3.326;2022-07-24T05:07:36;17.60;;;11.07;;
44989;SDS011;30723;51.206;3.326;2022-07-24T05:10:03;19.55;;;10.57;;
44989;SDS011;30723;51.206;3.326;2022-07-24T05:12:31;17.38;;;11.13;;
44989;SDS011;30723;51.206;3.326;2022-07-24T05:14:58;17.23;;;10.85;;
44989;SDS011;30723;51.206;3.326;2022-07-24T05:17:25;16.88;;;10.77;;
44989;SDS011;30723;51.206;3.326;2022-07-24T05:19:51;17.30;;;10.30;;
44989;SDS011;30723;51.206;3.326;2022-07-24T05:22:17;13.98;;;10.80;;
44989;SDS011;30723;51.206;3.326;2022-07-24T05:24:44;21.65;;;11.90;;
44989;SDS011;30723;51.206;3.326;2022-07-24T05:27:11;17.05;;;12.57;;
44989;SDS011;30723;51.206;3.326;2022-07-24T05:29:37;15.82;;;11.48;;
44989;SDS011;30723;51.206;3.326;2022-07-24T05:32:04;13.25;;;10.43;;
44989;SDS011;30723;51.206;3.326;2022-07-24T05:34:31;20.23;;;8.50;;
44989;SDS011;30723;51.206;3.326;2022-07-24T05:36:58;12.85;;;8.10;;
44989;SDS011;30723;51.206;3.326;2022-07-24T05:39:25;8.68;;;7.40;;
44989;SDS011;30723;51.206;3.326;2022-07-24T05:41:50;10.45;;;7.78;;
44989;SDS011;30723;51.206;3.326;2022-07-24T05:44:17;11.05;;;7.90;;
44989;SDS011;30723;51.206;3.326;2022-07-24T05:46:44;11.55;;;7.93;;
44989;SDS011;30723;51.206;3.326;2022-07-24T05:49:10;13.02;;;8.13;;
44989;SDS011;30723;51.206;3.326;2022-07-24T05:51:37;17.30;;;8.13;;
44989;SDS011;30723;51.206;3.326;2022-07-24T05:54:04;15.88;;;9.30;;
44989;SDS011;30723;51.206;3.326;2022-07-24T05:56:30;12.02;;;8.55;;
44989;SDS011;30723;51.206;3.326;2022-07-24T05:58:57;13.68;;;8.73;;
44989;SDS011;30723;51.206;3.326;2022-07-24T06:01:23;10.40;;;8.18;;
44989;SDS011;30723;51.206;3.326;2022-07-24T06:03:49;12.38;;;7.90;;
44989;SDS011;30723;51.206;3.326;2022-07-24T06:06:16;10.68;;;7.50;;
44989;SDS011;30723;51.206;3.326;2022-07-24T06:08:43;11.43;;;6.93;;
44989;SDS011;30723;51.206;3.326;2022-07-24T06:11:11;9.95;;;7.18;;
44989;SDS011;30723;51.206;3.326;2022-07-24T06:13:37;11.00;;;7.05;;
44989;SDS011;30723;51.206;3.326;2022-07-24T06:16:04;12.50;;;7.10;;
44989;SDS011;30723;51.206;3.326;2022-07-24T06:18:32;8.23;;;6.30;;
44989;SDS011;30723;51.206;3.326;2022-07-24T06:20:58;12.35;;;6.95;;
44989;SDS011;30723;51.206;3.326;2022-07-24T06:23:25;10.43;;;7.05;;
44989;SDS011;30723;51.206;3.326;2022-07-24T06:25:52;9.30;;;6.40;;
44989;SDS011;30723;51.206;3.326;2022-07-24T06:28:17;13.43;;;6.65;;
44989;SDS011;30723;51.206;3.326;2022-07-24T06:30:43;15.05;;;6.43;;
44989;SDS011;30723;51.206;3.326;2022-07-24T06:33:09;8.68;;;6.35;;
44989;SDS011;30723;51.206;3.326;2022-07-24T06:35:34;8.90;;;6.25;;
44989;SDS011;30723;51.206;3.326;2022-07-24T06:38:00;10.85;;;6.75;;
44989;SDS011;30723;51.206;3.326;2022-07-24T06:40:27;8.38;;;6.65;;
44989;SDS011;30723;51.206;3.326;2022-07-24T06:42:54;11.75;;;6.35;;
44989;SDS011;30723;51.206;3.326;2022-07-24T06:45:21;8.20;;;5.85;;
44989;SDS011;30723;51.206;3.326;2022-07-24T06:47:48;12.25;;;5.78;;
44989;SDS011;30723;51.206;3.326;2022-07-24T06:50:14;10.23;;;5.97;;
44989;SDS011;30723;51.206;3.326;2022-07-24T06:52:40;11.40;;;5.93;;
44989;SDS011;30723;51.206;3.326;2022-07-24T06:55:06;10.45;;;5.88;;
44989;SDS011;30723;51.206;3.326;2022-07-24T06:57:33;13.80;;;6.28;;
44989;SDS011;30723;51.206;3.326;2022-07-24T07:00:00;11.10;;;5.93;;
44989;SDS011;30723;51.206;3.326;2022-07-24T07:02:27;10.48;;;6.22;;
44989;SDS011;30723;51.206;3.326;2022-07-24T07:04:54;11.98;;;5.20;;
44989;SDS011;30723;51.206;3.326;2022-07-24T07:07:21;9.30;;;5.85;;
44989;SDS011;30723;51.206;3.326;2022-07-24T07:09:49;10.55;;;5.50;;
44989;SDS011;30723;51.206;3.326;2022-07-24T07:12:16;9.80;;;5.38;;
44989;SDS011;30723;51.206;3.326;2022-07-24T07:14:42;12.30;;;5.95;;
44989;SDS011;30723;51.206;3.326;2022-07-24T07:17:09;7.40;;;5.35;;
44989;SDS011;30723;51.206;3.326;2022-07-24T07:19:36;7.75;;;5.32;;
44989;SDS011;30723;51.206;3.326;2022-07-24T07:22:03;8.20;;;5.45;;
44989;SDS011;30723;51.206;3.326;2022-07-24T07:24:29;6.75;;;5.00;;
44989;SDS011;30723;51.206;3.326;2022-07-24T07:26:56;11.73;;;5.97;;
44989;SDS011;30723;51.206;3.326;2022-07-24T07:29:23;7.22;;;4.85;;
44989;SDS011;30723;51.206;3.326;2022-07-24T07:31:49;11.43;;;5.85;;
44989;SDS011;30723;51.206;3.326;2022-07-24T07:34:15;10.63;;;4.72;;
44989;SDS011;30723;51.206;3.326;2022-07-24T07:36:40;12.07;;;4.50;;
44989;SDS011;30723;51.206;3.326;2022-07-24T07:39:06;11.25;;;4.97;;
44989;SDS011;30723;51.206;3.326;2022-07-24T07:41:32;5.10;;;3.45;;
44989;SDS011;30723;51.206;3.326;2022-07-24T07:43:58;5.05;;;3.45;;
44989;SDS011;30723;51.206;3.326;2022-07-24T07:46:24;7.32;;;4.05;;
44989;SDS011;30723;51.206;3.326;2022-07-24T07:48:51;8.77;;;3.60;;
44989;SDS011;30723;51.206;3.326;2022-07-24T07:51:17;5.20;;;3.65;;
44989;SDS011;30723;51.206;3.326;2022-07-24T07:53:43;5.75;;;3.20;;
44989;SDS011;30723;51.206;3.326;2022-07-24T07:56:10;4.53;;;3.28;;
44989;SDS011;30723;51.206;3.326;2022-07-24T07:58:36;3.03;;;2.65;;
44989;SDS011;30723;51.206;3.326;2022-07-24T08:01:02;5.80;;;2.58;;
44989;SDS011;30723;51.206;3.326;2022-07-24T08:03:28;5.65;;;2.80;;
44989;SDS011;30723;51.206;3.326;2022-07-24T08:05:55;4.13;;;2.38;;
44989;SDS011;30723;51.206;3.326;2022-07-24T08:08:21;7.85;;;3.25;;
44989;SDS011;30723;51.206;3.326;2022-07-24T08:10:48;5.28;;;2.20;;
44989;SDS011;30723;51.206;3.326;2022-07-24T08:13:15;4.15;;;2.60;;
44989;SDS011;30723;51.206;3.326;2022-07-24T08:15:43;7.40;;;2.47;;
44989;SDS011;30723;51.206;3.326;2022-07-24T08:18:10;4.32;;;2.42;;
44989;SDS011;30723;51.206;3.326;2022-07-24T08:20:37;7.18;;;2.25;;
44989;SDS011;30723;51.206;3.326;2022-07-24T08:23:04;4.78;;;2.15;;
44989;SDS011;30723;51.206;3.326;2022-07-24T08:25:31;4.40;;;2.15;;
44989;SDS011;30723;51.206;3.326;2022-07-24T08:27:57;2.47;;;2.20;;
44989;SDS011;30723;51.206;3.326;2022-07-24T08:30:24;4.40;;;2.38;;
44989;SDS011;30723;51.206;3.326;2022-07-24T08:32:51;4.28;;;2.13;;
44989;SDS011;30723;51.206;3.326;2022-07-24T08:35:18;3.85;;;2.17;;
44989;SDS011;30723;51.206;3.326;2022-07-24T08:37:45;3.55;;;2.40;;
44989;SDS011;30723;51.206;3.326;2022-07-24T08:40:19;2.92;;;2.00;;
44989;SDS011;30723;51.206;3.326;2022-07-24T08:42:47;3.25;;;2.10;;
44989;SDS011;30723;51.206;3.326;2022-07-24T08:45:14;3.50;;;2.10;;
44989;SDS011;30723;51.206;3.326;2022-07-24T08:47:42;4.70;;;2.00;;
44989;SDS011;30723;51.206;3.326;2022-07-24T08:50:09;3.40;;;2.20;;
44989;SDS011;30723;51.206;3.326;2022-07-24T08:52:37;3.17;;;1.73;;
44989;SDS011;30723;51.206;3.326;2022-07-24T08:55:04;4.93;;;1.75;;
44989;SDS011;30723;51.206;3.326;2022-07-24T08:57:30;2.95;;;2.00;;
44989;SDS011;30723;51.206;3.326;2022-07-24T08:59:57;3.30;;;1.83;;
44989;SDS011;30723;51.206;3.326;2022-07-24T09:02:24;5.40;;;1.65;;
44989;SDS011;30723;51.206;3.326;2022-07-24T09:04:57;2.97;;;1.90;;
44989;SDS011;30723;51.206;3.326;2022-07-24T09:07:25;1.70;;;1.60;;
44989;SDS011;30723;51.206;3.326;2022-07-24T09:10:02;3.78;;;1.73;;
44989;SDS011;30723;51.206;3.326;2022-07-24T09:12:34;2.13;;;1.73;;
44989;SDS011;30723;51.206;3.326;2022-07-24T09:15:13;4.60;;;2.33;;
44989;SDS011;30723;51.206;3.326;2022-07-24T09:17:56;6.20;;;1.70;;
44989;SDS011;30723;51.206;3.326;2022-07-24T09:20:25;6.72;;;1.73;;
44989;SDS011;30723;51.206;3.326;2022-07-24T09:22:53;5.13;;;2.20;;
44989;SDS011;30723;51.206;3.326;2022-07-24T09:25:24;3.00;;;2.00;;
44989;SDS011;30723;51.206;3.326;2022-07-24T09:30:27;5.15;;;2.00;;
44989;SDS011;30723;51.206;3.326;2022-07-24T09:33:01;2.67;;;2.08;;
44989;SDS011;30723;51.206;3.326;2022-07-24T09:38:02;2.40;;;1.95;;
44989;SDS011;30723;51.206;3.326;2022-07-24T09:40:51;3.83;;;2.25;;
44989;SDS011;30723;51.206;3.326;2022-07-24T09:46:04;5.43;;;2.25;;
44989;SDS011;30723;51.206;3.326;2022-07-24T09:48:51;7.80;;;2.42;;
44989;SDS011;30723;51.206;3.326;2022-07-24T09:51:19;2.88;;;2.30;;
44989;SDS011;30723;51.206;3.326;2022-07-24T09:53:52;5.03;;;2.05;;
44989;SDS011;30723;51.206;3.326;2022-07-24T09:56:24;5.15;;;2.15;;
44989;SDS011;30723;51.206;3.326;2022-07-24T09:58:53;7.35;;;2.50;;
44989;SDS011;30723;51.206;3.326;2022-07-24T10:01:22;3.53;;;2.50;;
44989;SDS011;30723;51.206;3.326;2022-07-24T10:03:50;6.57;;;2.72;;
44989;SDS011;30723;51.206;3.326;2022-07-24T10:06:18;5.82;;;2.35;;
44989;SDS011;30723;51.206;3.326;2022-07-24T10:08:51;5.10;;;2.38;;
44989;SDS011;30723;51.206;3.326;2022-07-24T10:11:18;4.65;;;2.42;;
44989;SDS011;30723;51.206;3.326;2022-07-24T10:13:47;8.63;;;2.72;;
44989;SDS011;30723;51.206;3.326;2022-07-24T10:19:12;6.90;;;2.40;;
44989;SDS011;30723;51.206;3.326;2022-07-24T10:21:39;3.67;;;2.40;;
44989;SDS011;30723;51.206;3.326;2022-07-24T10:24:30;2.85;;;2.30;;
44989;SDS011;30723;51.206;3.326;2022-07-24T10:29:56;5.35;;;2.67;;
44989;SDS011;30723;51.206;3.326;2022-07-24T10:32:25;3.97;;;2.58;;
44989;SDS011;30723;51.206;3.326;2022-07-24T10:40:49;5.65;;;2.70;;
44989;SDS011;30723;51.206;3.326;2022-07-24T10:43:20;6.50;;;2.47;;
44989;SDS011;30723;51.206;3.326;2022-07-24T10:53:25;3.72;;;2.33;;
44989;SDS011;30723;51.206;3.326;2022-07-24T10:57:00;2.47;;;2.00;;
44989;SDS011;30723;51.206;3.326;2022-07-24T10:59:02;6.60;;;2.50;;
44989;SDS011;30723;51.206;3.326;2022-07-24T11:01:41;4.28;;;2.10;;
44989;SDS011;30723;51.206;3.326;2022-07-24T11:06:45;4.10;;;2.10;;
44989;SDS011;30723;51.206;3.326;2022-07-24T11:09:13;3.80;;;2.30;;
44989;SDS011;30723;51.206;3.326;2022-07-24T11:11:41;4.80;;;2.30;;
44989;SDS011;30723;51.206;3.326;2022-07-24T11:14:18;3.63;;;2.13;;
44989;SDS011;30723;51.206;3.326;2022-07-24T11:16:49;4.70;;;2.47;;
44989;SDS011;30723;51.206;3.326;2022-07-24T11:21:44;3.42;;;2.45;;
44989;SDS011;30723;51.206;3.326;2022-07-24T11:29:16;6.25;;;2.40;;
44989;SDS011;30723;51.206;3.326;2022-07-24T11:31:55;3.25;;;2.40;;
44989;SDS011;30723;51.206;3.326;2022-07-24T11:34:27;3.58;;;2.58;;
44989;SDS011;30723;51.206;3.326;2022-07-24T11:36:54;3.65;;;2.67;;
44989;SDS011;30723;51.206;3.326;2022-07-24T11:41:58;4.68;;;2.63;;
44989;SDS011;30723;51.206;3.326;2022-07-24T11:44:29;4.78;;;2.60;;
44989;SDS011;30723;51.206;3.326;2022-07-24T11:49:42;3.50;;;2.90;;
44989;SDS011;30723;51.206;3.326;2022-07-24T11:52:26;5.55;;;2.80;;
44989;SDS011;30723;51.206;3.326;2022-07-24T11:54:58;3.58;;;2.55;;
44989;SDS011;30723;51.206;3.326;2022-07-24T11:57:47;6.07;;;2.92;;
44989;SDS011;30723;51.206;3.326;2022-07-24T12:00:18;6.03;;;2.67;;
44989;SDS011;30723;51.206;3.326;2022-07-24T12:02:55;4.70;;;2.80;;
44989;SDS011;30723;51.206;3.326;2022-07-24T12:05:30;8.90;;;2.75;;
44989;SDS011;30723;51.206;3.326;2022-07-24T12:08:05;2.75;;;2.38;;
44989;SDS011;30723;51.206;3.326;2022-07-24T12:10:46;3.25;;;2.60;;
44989;SDS011;30723;51.206;3.326;2022-07-24T12:13:19;4.15;;;2.75;;
44989;SDS011;30723;51.206;3.326;2022-07-24T12:15:46;4.82;;;2.80;;
44989;SDS011;30723;51.206;3.326;2022-07-24T12:18:16;6.65;;;2.90;;
44989;SDS011;30723;51.206;3.326;2022-07-24T12:20:44;6.63;;;2.65;;
44989;SDS011;30723;51.206;3.326;2022-07-24T12:23:13;4.32;;;2.55;;
44989;SDS011;30723;51.206;3.326;2022-07-24T12:25:44;8.45;;;3.00;;
44989;SDS011;30723;51.206;3.326;2022-07-24T12:28:12;4.40;;;2.60;;
44989;SDS011;30723;51.206;3.326;2022-07-24T12:30:47;6.05;;;2.67;;
44989;SDS011;30723;51.206;3.326;2022-07-24T12:38:29;5.38;;;2.42;;
44989;SDS011;30723;51.206;3.326;2022-07-24T12:41:07;5.35;;;2.75;;
44989;SDS011;30723;51.206;3.326;2022-07-24T12:43:45;2.72;;;2.47;;
44989;SDS011;30723;51.206;3.326;2022-07-24T12:46:11;3.15;;;2.42;;
44989;SDS011;30723;51.206;3.326;2022-07-24T12:48:37;5.80;;;2.78;;
44989;SDS011;30723;51.206;3.326;2022-07-24T12:51:07;4.97;;;2.38;;
44989;SDS011;30723;51.206;3.326;2022-07-24T12:53:36;5.78;;;2.70;;
44989;SDS011;30723;51.206;3.326;2022-07-24T12:56:14;3.67;;;2.75;;
44989;SDS011;30723;51.206;3.326;2022-07-24T12:58:54;5.55;;;2.58;;
44989;SDS011;30723;51.206;3.326;2022-07-24T13:01:28;3.70;;;2.42;;
44989;SDS011;30723;51.206;3.326;2022-07-24T13:04:09;4.53;;;2.50;;
44989;SDS011;30723;51.206;3.326;2022-07-24T13:06:39;7.22;;;2.90;;
44989;SDS011;30723;51.206;3.326;2022-07-24T13:09:12;4.40;;;2.92;;
44989;SDS011;30723;51.206;3.326;2022-07-24T13:11:40;5.75;;;2.65;;
44989;SDS011;30723;51.206;3.326;2022-07-24T13:14:09;7.43;;;2.73;;
44989;SDS011;30723;51.206;3.326;2022-07-24T13:16:38;4.57;;;2.60;;
44989;SDS011;30723;51.206;3.326;2022-07-24T13:19:05;4.95;;;2.95;;
44989;SDS011;30723;51.206;3.326;2022-07-24T13:21:32;5.07;;;2.50;;
44989;SDS011;30723;51.206;3.326;2022-07-24T13:23:59;4.32;;;2.88;;
44989;SDS011;30723;51.206;3.326;2022-07-24T13:26:25;7.20;;;2.58;;
44989;SDS011;30723;51.206;3.326;2022-07-24T13:28:52;4.30;;;2.63;;
44989;SDS011;30723;51.206;3.326;2022-07-24T13:31:17;5.65;;;2.30;;
44989;SDS011;30723;51.206;3.326;2022-07-24T13:33:46;6.18;;;2.70;;
44989;SDS011;30723;51.206;3.326;2022-07-24T13:36:14;3.50;;;2.60;;
44989;SDS011;30723;51.206;3.326;2022-07-24T13:38:40;4.43;;;2.40;;
44989;SDS011;30723;51.206;3.326;2022-07-24T13:41:06;2.67;;;2.40;;
44989;SDS011;30723;51.206;3.326;2022-07-24T13:43:33;8.30;;;2.50;;
44989;SDS011;30723;51.206;3.326;2022-07-24T13:46:00;2.45;;;2.17;;
44989;SDS011;30723;51.206;3.326;2022-07-24T13:48:27;4.82;;;2.63;;
44989;SDS011;30723;51.206;3.326;2022-07-24T13:50:54;4.75;;;2.28;;
44989;SDS011;30723;51.206;3.326;2022-07-24T13:53:20;5.25;;;2.63;;
44989;SDS011;30723;51.206;3.326;2022-07-24T13:55:47;4.07;;;2.50;;
44989;SDS011;30723;51.206;3.326;2022-07-24T13:58:13;4.20;;;2.55;;
44989;SDS011;30723;51.206;3.326;2022-07-24T14:00:40;4.70;;;2.58;;
44989;SDS011;30723;51.206;3.326;2022-07-24T14:03:07;3.30;;;2.47;;
44989;SDS011;30723;51.206;3.326;2022-07-24T14:05:33;2.70;;;2.20;;
44989;SDS011;30723;51.206;3.326;2022-07-24T14:08:00;3.35;;;2.20;;
44989;SDS011;30723;51.206;3.326;2022-07-24T14:10:28;5.68;;;2.75;;
44989;SDS011;30723;51.206;3.326;2022-07-24T14:12:53;2.45;;;2.25;;
44989;SDS011;30723;51.206;3.326;2022-07-24T14:15:19;3.80;;;2.65;;
44989;SDS011;30723;51.206;3.326;2022-07-24T14:17:45;4.60;;;2.60;;
44989;SDS011;30723;51.206;3.326;2022-07-24T14:20:11;5.03;;;2.42;;
44989;SDS011;30723;51.206;3.326;2022-07-24T14:22:38;3.00;;;2.60;;
44989;SDS011;30723;51.206;3.326;2022-07-24T14:25:05;2.90;;;2.60;;
44989;SDS011;30723;51.206;3.326;2022-07-24T14:27:32;2.63;;;2.40;;
44989;SDS011;30723;51.206;3.326;2022-07-24T14:29:58;5.20;;;2.55;;
44989;SDS011;30723;51.206;3.326;2022-07-24T14:32:25;4.45;;;2.83;;
44989;SDS011;30723;51.206;3.326;2022-07-24T14:34:50;4.25;;;2.90;;
44989;SDS011;30723;51.206;3.326;2022-07-24T14:37:16;5.88;;;2.72;;
44989;SDS011;30723;51.206;3.326;2022-07-24T14:39:43;6.53;;;2.78;;
44989;SDS011;30723;51.206;3.326;2022-07-24T14:42:09;5.25;;;2.72;;
44989;SDS011;30723;51.206;3.326;2022-07-24T14:44:35;5.28;;;3.08;;
44989;SDS011;30723;51.206;3.326;2022-07-24T14:47:02;6.80;;;2.60;;
44989;SDS011;30723;51.206;3.326;2022-07-24T14:49:30;7.07;;;3.40;;
44989;SDS011;30723;51.206;3.326;2022-07-24T14:51:56;6.30;;;3.30;;
44989;SDS011;30723;51.206;3.326;2022-07-24T14:54:22;3.75;;;2.88;;
44989;SDS011;30723;51.206;3.326;2022-07-24T14:56:48;3.80;;;3.45;;
44989;SDS011;30723;51.206;3.326;2022-07-24T14:59:14;6.78;;;3.22;;
44989;SDS011;30723;51.206;3.326;2022-07-24T15:01:40;3.70;;;3.10;;
44989;SDS011;30723;51.206;3.326;2022-07-24T15:04:06;3.90;;;3.33;;
44989;SDS011;30723;51.206;3.326;2022-07-24T15:06:32;6.80;;;3.95;;
44989;SDS011;30723;51.206;3.326;2022-07-24T15:08:58;8.52;;;3.90;;
44989;SDS011;30723;51.206;3.326;2022-07-24T15:11:25;6.45;;;3.50;;
44989;SDS011;30723;51.206;3.326;2022-07-24T15:13:51;7.40;;;3.83;;
44989;SDS011;30723;51.206;3.326;2022-07-24T15:16:18;8.30;;;4.13;;
44989;SDS011;30723;51.206;3.326;2022-07-24T15:18:44;13.38;;;4.30;;
44989;SDS011;30723;51.206;3.326;2022-07-24T15:21:11;7.47;;;3.40;;
44989;SDS011;30723;51.206;3.326;2022-07-24T15:23:37;6.05;;;3.28;;
44989;SDS011;30723;51.206;3.326;2022-07-24T15:26:04;6.50;;;3.22;;
44989;SDS011;30723;51.206;3.326;2022-07-24T15:28:31;11.32;;;3.92;;
44989;SDS011;30723;51.206;3.326;2022-07-24T15:30:58;9.63;;;3.30;;